Time;durP1;ratioP1;P1;durP2;ratioP2;P2;SDS_P1;SDS_P2;PMS_P1;PMS_P2;Temp;Humidity;BMP_temperature;BMP_pressure;BME280_temperature;BME280_humidity;BME280_pressure;Samples;Min_cycle;Max_cycle;Signal;HPM_P1;HPM_P2
2021/10/01 00:01:28;;;;;;;9.05;8.35;;;8.10;82.50;;;;;;4978560;29;20047;-69
2021/10/01 00:04:00;;;;;;;8.35;7.50;;;8.10;82.90;;;;;;4980051;29;20425;-69
2021/10/01 00:06:32;;;;;;;8.68;7.93;;;8.00;83.40;;;;;;4978532;29;20054;-70
2021/10/01 00:09:07;;;;;;;8.60;7.72;;;8.00;83.50;;;;;;4980937;29;20129;-70
2021/10/01 00:11:43;;;;;;;9.60;7.70;;;8.00;83.60;;;;;;4977956;29;20257;-67
2021/10/01 00:14:15;;;;;;;8.30;7.60;;;8.00;83.40;;;;;;4979579;29;20050;-68
2021/10/01 00:16:47;;;;;;;8.73;7.82;;;8.00;83.20;;;;;;4977966;29;20138;-69
2021/10/01 00:19:20;;;;;;;8.90;8.10;;;8.00;84.80;;;;;;4980505;29;20081;-69
2021/10/01 00:21:52;;;;;;;8.75;8.05;;;8.00;84.10;;;;;;4978877;29;20091;-68
2021/10/01 00:24:24;;;;;;;8.32;7.60;;;8.00;83.70;;;;;;4979845;29;20154;-69
2021/10/01 00:26:56;;;;;;;8.48;7.78;;;8.00;84.00;;;;;;4978427;29;21026;-69
2021/10/01 00:29:28;;;;;;;8.90;8.00;;;8.10;84.80;;;;;;4965810;29;20074;-68
2021/10/01 00:32:00;;;;;;;8.60;7.80;;;8.00;83.70;;;;;;4978916;29;20103;-69
2021/10/01 00:34:32;;;;;;;8.75;7.90;;;8.00;83.30;;;;;;4979225;29;20620;-69
2021/10/01 00:37:04;;;;;;;8.50;7.80;;;8.00;83.90;;;;;;4978207;29;21130;-68
2021/10/01 00:39:37;;;;;;;8.52;7.70;;;8.00;85.20;;;;;;4966305;29;20139;-70
2021/10/01 00:42:09;;;;;;;8.73;8.02;;;8.00;84.80;;;;;;4977557;29;20139;-69
2021/10/01 00:44:41;;;;;;;8.88;8.18;;;8.00;83.90;;;;;;4978106;29;20137;-69
2021/10/01 00:47:12;;;;;;;9.45;8.50;;;7.90;83.80;;;;;;4982911;29;20128;-70
2021/10/01 00:49:45;;;;;;;8.68;7.88;;;7.90;83.50;;;;;;4965013;29;20038;-69
2021/10/01 00:52:19;;;;;;;9.30;8.50;;;7.80;83.90;;;;;;4978814;29;20050;-69
2021/10/01 00:54:52;;;;;;;8.70;8.00;;;7.80;84.50;;;;;;4978371;29;20073;-69
2021/10/01 00:57:24;;;;;;;8.45;7.75;;;7.70;85.70;;;;;;4965969;29;20111;-69
2021/10/01 00:59:56;;;;;;;8.75;7.82;;;7.70;85.70;;;;;;4966238;29;20054;-69
2021/10/01 01:02:28;;;;;;;8.95;8.05;;;7.70;85.70;;;;;;4966450;29;20057;-69
2021/10/01 01:05:00;;;;;;;8.75;7.95;;;7.70;85.40;;;;;;4975609;29;20054;-69
2021/10/01 01:07:52;;;;;;;8.40;7.70;;;7.70;85.50;;;;;;4979540;29;20074;-69
2021/10/01 01:10:43;;;;;;;9.30;8.55;;;7.70;85.20;;;;;;4966610;29;20038;-69
2021/10/01 01:13:48;;;;;;;8.32;7.63;;;7.80;84.70;;;;;;4977757;29;20111;-69
2021/10/01 01:16:27;;;;;;;8.80;8.00;;;7.80;84.20;;;;;;4964975;29;20513;-68
2021/10/01 01:19:02;;;;;;;8.82;8.13;;;7.80;83.90;;;;;;4966227;29;20058;-69
2021/10/01 01:21:57;;;;;;;9.38;8.55;;;7.70;84.60;;;;;;4978165;29;20126;-69
2021/10/01 01:24:42;;;;;;;8.85;8.10;;;7.60;84.60;;;;;;4966096;29;20062;-71
2021/10/01 01:27:45;;;;;;;9.07;8.27;;;7.50;84.10;;;;;;4975079;29;20184;-69
2021/10/01 01:30:22;;;;;;;9.10;8.30;;;7.50;84.30;;;;;;4976759;29;20046;-68
2021/10/01 01:33:08;;;;;;;8.70;8.00;;;7.50;83.90;;;;;;4962639;29;20135;-70
2021/10/01 01:35:42;;;;;;;8.90;8.10;;;7.60;83.60;;;;;;4978519;29;20095;-69
2021/10/01 01:38:24;;;;;;;8.80;8.00;;;7.60;83.20;;;;;;4979891;29;20091;-70
2021/10/01 01:40:59;;;;;;;8.77;7.82;;;7.60;83.10;;;;;;4964132;29;20050;-68
2021/10/01 01:43:33;;;;;;;8.68;7.95;;;7.60;83.10;;;;;;4978248;29;20046;-69
2021/10/01 01:46:07;;;;;;;8.70;7.90;;;7.60;83.10;;;;;;4963953;29;20046;-69
2021/10/01 01:48:41;;;;;;;8.93;8.07;;;7.50;83.30;;;;;;4968117;29;20556;-69
2021/10/01 01:51:15;;;;;;;8.77;7.97;;;7.50;83.90;;;;;;4968073;29;20116;-69
2021/10/01 01:53:47;;;;;;;8.50;7.80;;;7.40;84.60;;;;;;4978687;29;20084;-69
2021/10/01 01:56:20;;;;;;;9.35;8.45;;;7.40;84.50;;;;;;4964679;29;20066;-70
2021/10/01 01:58:52;;;;;;;9.35;8.55;;;7.40;84.40;;;;;;4965957;29;20078;-69
2021/10/01 02:01:40;;;;;;;9.60;8.55;;;7.40;84.70;;;;;;4965457;29;20043;-70
2021/10/01 02:04:19;;;;;;;8.88;7.97;;;7.40;84.10;;;;;;4966387;29;20056;-69
2021/10/01 02:06:53;;;;;;;9.00;8.10;;;7.30;85.10;;;;;;4976044;29;20044;-69
2021/10/01 02:09:26;;;;;;;8.60;7.80;;;7.30;84.40;;;;;;4979777;29;20131;-70
2021/10/01 02:12:01;;;;;;;8.68;7.97;;;7.30;84.60;;;;;;4975311;29;20050;-68
2021/10/01 02:14:38;;;;;;;8.70;7.88;;;7.20;84.40;;;;;;4980123;29;20043;-69
2021/10/01 02:17:15;;;;;;;8.50;7.80;;;7.20;83.90;;;;;;4959909;29;20065;-69
2021/10/01 02:19:48;;;;;;;9.20;8.48;;;7.20;83.70;;;;;;4978401;29;20042;-69
2021/10/01 02:22:21;;;;;;;8.95;8.15;;;7.20;83.30;;;;;;4961169;29;20204;-69
2021/10/01 02:24:53;;;;;;;9.40;8.50;;;7.20;83.10;;;;;;4965889;29;20905;-68
2021/10/01 02:27:51;;;;;;;9.20;8.40;;;7.10;83.30;;;;;;4959846;29;20515;-68
2021/10/01 02:30:24;;;;;;;8.57;7.88;;;7.10;83.40;;;;;;4964461;29;20042;-70
2021/10/01 02:33:02;;;;;;;9.30;8.50;;;7.00;83.60;;;;;;4976062;29;20050;-69
2021/10/01 02:35:34;;;;;;;9.05;8.30;;;7.00;83.90;;;;;;4966129;29;20056;-70
2021/10/01 02:38:07;;;;;;;8.65;7.95;;;7.00;83.70;;;;;;4983409;29;20061;-69
2021/10/01 02:40:39;;;;;;;8.88;8.02;;;7.10;84.10;;;;;;4979751;29;20074;-69
2021/10/01 02:43:11;;;;;;;8.48;7.68;;;7.00;84.90;;;;;;4983754;29;20839;-69
2021/10/01 02:45:43;;;;;;;8.50;7.80;;;7.00;84.20;;;;;;4952302;29;20054;-69
2021/10/01 02:48:15;;;;;;;8.85;8.02;;;7.00;83.90;;;;;;4983094;29;20065;-69
2021/10/01 02:50:56;;;;;;;9.88;8.98;;;7.10;84.90;;;;;;4966766;29;20549;-69
2021/10/01 02:53:44;;;;;;;8.80;8.00;;;7.00;84.30;;;;;;4967719;29;20061;-69
2021/10/01 02:56:23;;;;;;;8.68;7.88;;;7.00;84.30;;;;;;4981128;29;20070;-69
2021/10/01 02:58:59;;;;;;;8.98;8.07;;;7.10;84.10;;;;;;4970759;29;20050;-70
2021/10/01 03:01:34;;;;;;;8.50;7.70;;;7.00;83.60;;;;;;4964898;29;20046;-71
2021/10/01 03:04:10;;;;;;;8.15;7.45;;;7.00;83.70;;;;;;4982925;29;20549;-70
2021/10/01 03:06:47;;;;;;;8.05;7.35;;;7.10;84.40;;;;;;4966225;29;20436;-68
2021/10/01 03:09:23;;;;;;;8.45;7.75;;;7.00;83.90;;;;;;4982187;29;20038;-71
2021/10/01 03:12:00;;;;;;;9.05;8.25;;;7.00;84.40;;;;;;4981412;29;20049;-69
2021/10/01 03:14:35;;;;;;;8.85;7.70;;;6.90;83.60;;;;;;4982592;29;20087;-69
2021/10/01 03:17:07;;;;;;;8.23;7.53;;;7.00;83.80;;;;;;4980602;29;20043;-69
2021/10/01 03:19:40;;;;;;;9.20;7.60;;;7.00;84.50;;;;;;4967826;29;20043;-71
2021/10/01 03:22:13;;;;;;;8.35;7.65;;;6.90;86.50;;;;;;4951413;29;20042;-69
2021/10/01 03:24:46;;;;;;;8.75;8.02;;;6.90;86.00;;;;;;4948949;29;20084;-69
2021/10/01 03:27:19;;;;;;;8.60;7.90;;;6.90;85.60;;;;;;4966757;29;20199;-70
2021/10/01 03:29:51;;;;;;;8.60;7.90;;;6.90;84.90;;;;;;4983190;29;20050;-69
2021/10/01 03:32:23;;;;;;;8.52;7.72;;;6.90;84.90;;;;;;4945046;29;20054;-69
2021/10/01 03:34:55;;;;;;;9.07;8.20;;;6.90;84.40;;;;;;4967883;29;20161;-68
2021/10/01 03:37:29;;;;;;;8.88;8.18;;;6.90;84.10;;;;;;4979875;29;20053;-68
2021/10/01 03:40:10;;;;;;;10.95;7.78;;;6.90;84.40;;;;;;4967878;29;20050;-69
2021/10/01 03:42:42;;;;;;;9.00;8.20;;;6.90;84.70;;;;;;4982369;29;20170;-68
2021/10/01 03:45:20;;;;;;;8.65;7.95;;;6.80;84.10;;;;;;4967079;29;20129;-69
2021/10/01 03:47:55;;;;;;;8.60;7.90;;;6.80;84.00;;;;;;4966744;29;20054;-70
2021/10/01 03:50:27;;;;;;;8.77;8.07;;;6.90;84.00;;;;;;4949006;29;20042;-69
2021/10/01 03:53:00;;;;;;;8.75;7.95;;;6.90;83.80;;;;;;4949966;29;20126;-71
2021/10/01 03:55:32;;;;;;;8.45;7.65;;;6.90;84.90;;;;;;4983861;29;20123;-71
2021/10/01 03:58:05;;;;;;;8.70;7.90;;;6.80;84.60;;;;;;4963811;29;20174;-69
2021/10/01 04:00:37;;;;;;;9.23;8.40;;;6.80;85.20;;;;;;4979148;29;20081;-70
2021/10/01 04:03:09;;;;;;;9.35;8.65;;;6.80;86.10;;;;;;4978968;29;20487;-69
2021/10/01 04:05:48;;;;;;;10.77;9.93;;;6.80;85.10;;;;;;4969606;29;20156;-70
2021/10/01 04:08:20;;;;;;;10.10;9.20;;;6.80;84.70;;;;;;4978975;29;20047;-70
2021/10/01 04:10:52;;;;;;;10.40;9.50;;;6.70;85.20;;;;;;4967483;29;20051;-70
2021/10/01 04:13:24;;;;;;;10.52;9.70;;;6.70;85.00;;;;;;4968116;29;20049;-69
2021/10/01 04:15:56;;;;;;;9.80;9.00;;;6.60;84.50;;;;;;4982020;29;20046;-68
2021/10/01 04:18:29;;;;;;;10.10;9.30;;;6.60;84.90;;;;;;4980242;29;20050;-68
2021/10/01 04:21:01;;;;;;;9.93;9.13;;;6.60;85.40;;;;;;4969170;29;20046;-70
2021/10/01 04:23:33;;;;;;;9.85;9.02;;;6.60;85.40;;;;;;4980883;29;20061;-69
2021/10/01 04:26:27;;;;;;;9.52;8.82;;;6.50;85.00;;;;;;4980149;29;20054;-68
2021/10/01 04:28:59;;;;;;;9.27;8.40;;;6.50;84.80;;;;;;4966816;29;20046;-70
2021/10/01 04:31:32;;;;;;;9.60;8.57;;;6.50;84.70;;;;;;4982350;29;20666;-69
2021/10/01 04:34:04;;;;;;;9.30;8.50;;;6.50;85.00;;;;;;4964202;29;20057;-68
2021/10/01 04:36:36;;;;;;;9.13;8.43;;;6.50;85.10;;;;;;4980354;29;20052;-68
2021/10/01 04:39:09;;;;;;;9.55;8.63;;;6.40;84.70;;;;;;4978200;29;20054;-69
2021/10/01 04:41:42;;;;;;;9.07;8.38;;;6.40;84.70;;;;;;4980503;29;20050;-70
2021/10/01 04:44:14;;;;;;;9.60;8.80;;;6.40;84.50;;;;;;4978208;29;20058;-68
2021/10/01 04:46:48;;;;;;;9.65;8.95;;;6.40;84.70;;;;;;4980514;29;20231;-69
2021/10/01 04:49:20;;;;;;;9.65;8.75;;;6.40;84.60;;;;;;4964264;29;20058;-68
2021/10/01 04:51:52;;;;;;;9.40;8.60;;;6.40;84.80;;;;;;4978163;29;20123;-71
2021/10/01 04:54:25;;;;;;;9.27;8.50;;;6.40;84.90;;;;;;4977203;29;20054;-70
2021/10/01 04:56:57;;;;;;;10.20;9.40;;;6.40;86.20;;;;;;4962967;29;20053;-68
2021/10/01 04:59:37;;;;;;;9.60;8.80;;;6.40;86.10;;;;;;4966050;29;20143;-69
2021/10/01 05:02:39;;;;;;;9.20;8.40;;;6.40;87.00;;;;;;4977822;29;20051;-68
2021/10/01 05:05:21;;;;;;;9.73;8.85;;;6.40;86.60;;;;;;4966802;29;20088;-69
2021/10/01 05:08:31;;;;;;;9.85;8.95;;;6.40;86.90;;;;;;4974936;29;20552;-68
2021/10/01 05:11:26;;;;;;;10.15;9.15;;;6.40;86.20;;;;;;4959012;29;20191;-69
2021/10/01 05:14:17;;;;;;;10.70;9.63;;;6.40;86.70;;;;;;4964817;29;20175;-68
2021/10/01 05:17:14;;;;;;;10.35;9.45;;;6.30;86.80;;;;;;4976012;29;20051;-69
2021/10/01 05:20:09;;;;;;;9.88;9.07;;;6.30;86.50;;;;;;4986240;29;20057;-69
2021/10/01 05:22:48;;;;;;;10.75;9.43;;;6.30;86.20;;;;;;4978891;29;20047;-68
2021/10/01 05:25:20;;;;;;;9.90;9.10;;;6.30;85.70;;;;;;4976343;29;20060;-69
2021/10/01 05:27:53;;;;;;;9.95;9.07;;;6.30;86.20;;;;;;4977070;29;20050;-68
2021/10/01 05:30:25;;;;;;;9.55;8.75;;;6.30;86.10;;;;;;4961632;29;20078;-68
2021/10/01 05:32:58;;;;;;;9.30;8.40;;;6.40;85.70;;;;;;4978076;29;20055;-68
2021/10/01 05:35:29;;;;;;;9.52;8.73;;;6.30;86.00;;;;;;4965780;29;20157;-68
2021/10/01 05:38:02;;;;;;;9.80;8.90;;;6.30;86.30;;;;;;4976718;29;20129;-69
2021/10/01 05:40:34;;;;;;;9.20;8.40;;;6.30;86.20;;;;;;4977347;29;20279;-69
2021/10/01 05:43:07;;;;;;;9.55;8.75;;;6.30;86.50;;;;;;4976406;29;20122;-69
2021/10/01 05:45:40;;;;;;;9.10;8.40;;;6.30;86.60;;;;;;4962284;29;20051;-69
2021/10/01 05:48:33;;;;;;;9.38;8.57;;;6.20;86.60;;;;;;4977342;29;20073;-69
2021/10/01 05:51:23;;;;;;;9.63;8.82;;;6.30;86.60;;;;;;4973976;29;20107;-68
2021/10/01 05:54:21;;;;;;;9.55;8.55;;;6.40;86.40;;;;;;4975779;29;20110;-68
2021/10/01 05:57:19;;;;;;;9.60;8.70;;;6.50;86.10;;;;;;4975414;29;20197;-68
2021/10/01 06:00:07;;;;;;;10.30;9.27;;;6.70;86.30;;;;;;4957301;29;20618;-68
2021/10/01 06:02:45;;;;;;;9.63;8.82;;;6.80;86.20;;;;;;4975816;29;20051;-67
2021/10/01 06:05:17;;;;;;;9.65;8.85;;;6.90;85.60;;;;;;4976608;29;20054;-70
2021/10/01 06:07:49;;;;;;;9.80;8.90;;;7.10;85.20;;;;;;4961336;29;20055;-69
2021/10/01 06:10:21;;;;;;;9.48;8.68;;;7.20;84.90;;;;;;4981350;29;20138;-68
2021/10/01 06:12:53;;;;;;;10.27;9.10;;;7.30;84.80;;;;;;4969495;29;20509;-68
2021/10/01 06:15:25;;;;;;;9.98;9.07;;;7.40;85.10;;;;;;4980269;29;20038;-67
2021/10/01 06:17:57;;;;;;;9.55;8.55;;;7.50;85.10;;;;;;4971175;29;20134;-69
2021/10/01 06:20:29;;;;;;;9.93;9.02;;;7.60;84.90;;;;;;4979844;29;20437;-69
2021/10/01 06:23:01;;;;;;;10.50;9.23;;;7.70;85.40;;;;;;4981761;29;20561;-68
2021/10/01 06:25:33;;;;;;;9.63;8.80;;;7.80;86.60;;;;;;4980990;29;20073;-68
2021/10/01 06:28:05;;;;;;;9.48;8.55;;;7.70;86.20;;;;;;4968433;29;20230;-69
2021/10/01 06:30:36;;;;;;;9.80;9.00;;;7.70;86.90;;;;;;4981056;29;20786;-68
2021/10/01 06:33:09;;;;;;;9.30;8.27;;;7.80;87.00;;;;;;4982800;29;20046;-68
2021/10/01 06:35:43;;;;;;;9.70;8.80;;;8.00;87.20;;;;;;4981659;29;20125;-67
2021/10/01 06:38:15;;;;;;;9.10;8.20;;;8.00;86.40;;;;;;4981622;29;20089;-68
2021/10/01 06:40:47;;;;;;;9.15;8.25;;;8.00;87.20;;;;;;4982010;29;20050;-68
2021/10/01 06:43:20;;;;;;;9.80;8.15;;;8.10;88.20;;;;;;4981887;29;20618;-69
2021/10/01 06:45:54;;;;;;;8.95;8.00;;;8.20;88.80;;;;;;4980750;29;20114;-68
2021/10/01 06:48:54;;;;;;;8.80;8.00;;;8.30;88.70;;;;;;4969690;29;20496;-66
2021/10/01 08:19:48;;;;;;;11.80;10.90;;;13.40;76.60;;;;;;4979590;29;20042;-67
2021/10/01 08:22:20;;;;;;;11.48;10.57;;;13.60;75.60;;;;;;4963586;29;20445;-67
2021/10/01 08:24:54;;;;;;;11.85;10.95;;;13.70;76.70;;;;;;4980054;29;20057;-68
2021/10/01 08:27:26;;;;;;;11.98;11.05;;;13.80;77.00;;;;;;4977705;29;20993;-69
2021/10/01 08:29:58;;;;;;;12.15;11.25;;;14.00;75.80;;;;;;4979459;29;20751;-69
2021/10/01 08:32:30;;;;;;;12.02;11.10;;;14.10;77.00;;;;;;4963277;29;20157;-68
2021/10/01 08:35:04;;;;;;;13.25;12.25;;;14.10;74.00;;;;;;4975760;29;20481;-69
2021/10/01 08:37:36;;;;;;;12.85;11.85;;;14.30;77.10;;;;;;4973176;29;20055;-69
2021/10/01 08:40:08;;;;;;;12.32;11.25;;;14.40;75.40;;;;;;4978673;29;20075;-69
2021/10/01 08:42:48;;;;;;;12.57;11.43;;;14.50;73.80;;;;;;4977850;29;20118;-69
2021/10/01 08:45:23;;;;;;;11.88;10.95;;;14.60;74.90;;;;;;4977951;29;20157;-69
2021/10/01 08:47:57;;;;;;;12.10;11.10;;;14.80;74.60;;;;;;4976698;29;20114;-68
2021/10/01 08:50:30;;;;;;;12.35;11.35;;;14.80;74.50;;;;;;4978921;29;20047;-69
2021/10/01 08:53:05;;;;;;;12.10;11.10;;;14.90;71.30;;;;;;4949728;29;20050;-70
2021/10/01 08:55:38;;;;;;;12.00;11.00;;;15.00;74.00;;;;;;4979683;29;20047;-70
2021/10/01 08:58:10;;;;;;;11.93;11.02;;;15.00;71.60;;;;;;4978939;29;20187;-69
2021/10/01 09:00:42;;;;;;;13.25;12.25;;;15.10;72.20;;;;;;4979020;29;20157;-68
2021/10/01 09:03:14;;;;;;;12.95;11.70;;;15.20;71.90;;;;;;4979759;29;20062;-69
2021/10/01 09:05:46;;;;;;;13.55;12.55;;;15.40;71.30;;;;;;4981935;29;20054;-68
2021/10/01 09:08:22;;;;;;;12.75;11.65;;;15.30;72.10;;;;;;4975851;29;20205;-68
2021/10/01 09:11:02;;;;;;;12.45;11.55;;;15.40;72.70;;;;;;4977971;29;20054;-69
2021/10/01 09:13:41;;;;;;;13.40;12.20;;;15.50;73.50;;;;;;4964595;29;20058;-69
2021/10/01 09:16:14;;;;;;;12.90;11.90;;;15.50;72.50;;;;;;4975369;29;20055;-70
2021/10/01 09:18:46;;;;;;;13.25;12.25;;;15.70;74.50;;;;;;4978905;29;20057;-69
2021/10/01 09:21:20;;;;;;;13.18;12.07;;;15.80;73.60;;;;;;4977871;29;20227;-70
2021/10/01 09:23:56;;;;;;;12.88;11.88;;;15.90;73.90;;;;;;4977357;29;20082;-70
2021/10/01 09:26:30;;;;;;;13.32;12.27;;;15.90;72.40;;;;;;4977043;29;20148;-68
2021/10/01 09:29:07;;;;;;;12.93;12.02;;;16.00;72.50;;;;;;4978507;29;20078;-69
2021/10/01 09:31:46;;;;;;;13.55;12.45;;;16.00;72.20;;;;;;4977162;29;20050;-68
2021/10/01 09:34:24;;;;;;;13.00;11.90;;;16.00;71.90;;;;;;4979682;29;20083;-69
2021/10/01 09:37:19;;;;;;;13.15;12.15;;;16.10;70.40;;;;;;4976321;29;20129;-69
2021/10/01 09:39:56;;;;;;;13.25;12.23;;;16.20;68.20;;;;;;4957433;29;20108;-70
2021/10/01 09:42:43;;;;;;;13.25;12.25;;;16.30;69.00;;;;;;4976602;29;20638;-69
2021/10/01 09:45:17;;;;;;;13.57;12.40;;;16.40;69.90;;;;;;4978901;29;20058;-69
2021/10/01 09:47:50;;;;;;;12.73;11.73;;;16.50;66.80;;;;;;4977320;29;20174;-68
2021/10/01 09:50:26;;;;;;;12.95;11.95;;;16.60;67.30;;;;;;4978784;29;20125;-69
2021/10/01 09:53:02;;;;;;;13.35;12.25;;;16.60;66.70;;;;;;4979437;29;20056;-70
2021/10/01 09:55:34;;;;;;;13.40;12.40;;;16.60;66.40;;;;;;4981384;29;20057;-69
2021/10/01 09:58:12;;;;;;;13.13;12.00;;;16.70;66.60;;;;;;4976826;29;20149;-69
2021/10/01 10:00:49;;;;;;;13.00;12.10;;;16.80;65.50;;;;;;4978993;29;20050;-70
2021/10/01 10:03:24;;;;;;;12.93;11.85;;;16.80;63.30;;;;;;4978635;29;20064;-69
2021/10/01 10:06:00;;;;;;;12.88;11.90;;;16.80;62.60;;;;;;4977137;29;20158;-70
2021/10/01 10:08:35;;;;;;;12.95;12.05;;;16.90;62.00;;;;;;4964471;29;20066;-70
2021/10/01 10:11:15;;;;;;;15.45;12.65;;;17.00;61.80;;;;;;4982504;29;20054;-70
2021/10/01 10:13:54;;;;;;;12.93;11.93;;;17.10;62.40;;;;;;4975459;29;20034;-69
2021/10/01 10:16:28;;;;;;;13.00;12.00;;;17.10;61.90;;;;;;4976520;29;20066;-69
2021/10/01 10:19:06;;;;;;;12.90;12.00;;;17.10;62.10;;;;;;4961206;29;20042;-68
2021/10/01 10:21:38;;;;;;;12.90;11.90;;;17.20;62.70;;;;;;4963509;29;20066;-69
2021/10/01 10:24:10;;;;;;;12.70;11.80;;;17.30;61.90;;;;;;4980406;29;20053;-68
2021/10/01 10:26:43;;;;;;;12.70;11.60;;;17.30;60.80;;;;;;4966757;29;20054;-69
2021/10/01 10:29:16;;;;;;;13.18;12.00;;;17.30;60.70;;;;;;4975078;29;20417;-69
2021/10/01 10:31:47;;;;;;;12.57;11.68;;;17.40;60.80;;;;;;4976717;29;20153;-69
2021/10/01 10:34:27;;;;;;;12.70;11.70;;;17.40;60.70;;;;;;4976009;29;20111;-69
2021/10/01 10:37:04;;;;;;;13.50;12.60;;;17.50;61.80;;;;;;4975451;29;20053;-69
2021/10/01 10:39:45;;;;;;;13.73;12.73;;;17.60;61.20;;;;;;4977204;29;20188;-69
2021/10/01 10:42:32;;;;;;;13.05;12.15;;;17.60;60.60;;;;;;4979332;29;20138;-70
2021/10/01 10:45:14;;;;;;;13.38;12.38;;;17.60;61.00;;;;;;4976497;29;20107;-69
2021/10/01 10:47:55;;;;;;;13.70;12.63;;;17.80;61.60;;;;;;4976225;29;20145;-69
2021/10/01 10:50:33;;;;;;;13.63;12.48;;;17.80;61.10;;;;;;4978549;29;20522;-70
2021/10/01 10:53:15;;;;;;;13.25;12.35;;;17.90;59.90;;;;;;4977936;29;20050;-69
2021/10/01 10:56:03;;;;;;;13.60;12.60;;;17.90;60.70;;;;;;4979565;29;20054;-70
2021/10/01 10:58:41;;;;;;;13.70;12.70;;;18.00;60.40;;;;;;4965263;29;20057;-70
2021/10/01 11:01:15;;;;;;;13.80;12.80;;;18.10;61.10;;;;;;4980660;29;20166;-70
2021/10/01 11:04:18;;;;;;;13.48;12.48;;;18.20;60.80;;;;;;4980370;29;20827;-70
2021/10/01 11:06:51;;;;;;;13.60;12.60;;;18.20;60.20;;;;;;4980157;29;20708;-70
2021/10/01 11:09:24;;;;;;;14.20;13.10;;;18.30;61.80;;;;;;4984778;29;20074;-70
2021/10/01 11:11:58;;;;;;;13.85;12.85;;;18.40;60.60;;;;;;4980476;29;20781;-70
2021/10/01 11:14:33;;;;;;;13.50;12.50;;;18.50;60.80;;;;;;4980753;29;20513;-70
2021/10/01 11:17:06;;;;;;;14.07;12.98;;;18.50;60.90;;;;;;4978684;29;20060;-70
2021/10/01 11:19:44;;;;;;;13.75;12.75;;;18.60;61.20;;;;;;4980711;29;20094;-71
2021/10/01 11:22:38;;;;;;;14.60;13.55;;;18.70;60.20;;;;;;4980156;29;20050;-70
2021/10/01 11:25:17;;;;;;;14.48;13.35;;;18.70;58.60;;;;;;4981059;29;20524;-70
2021/10/01 11:28:01;;;;;;;14.38;13.38;;;18.80;62.50;;;;;;4977764;29;20058;-71
2021/10/01 11:30:37;;;;;;;14.63;13.52;;;18.80;60.70;;;;;;4978553;29;20488;-71
2021/10/01 11:33:12;;;;;;;15.20;14.10;;;18.90;62.00;;;;;;4968148;29;20102;-71
2021/10/01 11:35:55;;;;;;;15.60;14.50;;;18.90;60.30;;;;;;4979427;29;20562;-70
2021/10/01 11:38:33;;;;;;;15.73;14.55;;;19.00;61.70;;;;;;4966846;29;20433;-73
2021/10/01 11:41:13;;;;;;;14.85;13.75;;;18.90;61.50;;;;;;4978902;29;20793;-71
2021/10/01 11:43:54;;;;;;;23.35;21.35;;;19.00;62.00;;;;;;4980646;29;20150;-70
2021/10/01 11:46:36;;;;;;;18.20;16.80;;;19.00;63.20;;;;;;4977284;29;20079;-71
2021/10/01 11:49:20;;;;;;;15.93;14.82;;;19.10;62.90;;;;;;4980855;29;20046;-70
2021/10/01 11:52:09;;;;;;;16.77;15.48;;;19.20;63.80;;;;;;4979217;29;20184;-70
2021/10/01 11:54:54;;;;;;;15.82;14.50;;;19.20;63.70;;;;;;4980400;29;20042;-72
2021/10/01 11:57:46;;;;;;;16.05;14.95;;;19.20;62.50;;;;;;4967526;29;20136;-71
2021/10/01 12:00:18;;;;;;;15.98;14.77;;;19.30;62.00;;;;;;4978589;29;20143;-72
2021/10/01 12:02:53;;;;;;;16.45;15.15;;;19.40;60.70;;;;;;4977638;29;20161;-70
2021/10/01 12:05:30;;;;;;;16.58;15.38;;;19.40;63.80;;;;;;4979669;29;20133;-70
2021/10/01 12:08:07;;;;;;;15.90;14.80;;;19.60;64.10;;;;;;4981708;29;21262;-71
2021/10/01 12:10:44;;;;;;;16.60;15.30;;;19.60;63.80;;;;;;4964772;29;20070;-71
2021/10/01 12:13:36;;;;;;;16.70;15.50;;;19.70;62.10;;;;;;4979834;29;20125;-70
2021/10/01 12:16:11;;;;;;;16.92;15.52;;;19.70;60.10;;;;;;4978043;29;20106;-70
2021/10/01 12:18:54;;;;;;;16.83;15.52;;;19.70;61.60;;;;;;4978475;29;20066;-69
2021/10/01 12:21:28;;;;;;;16.83;15.52;;;19.70;60.80;;;;;;4979800;29;20426;-71
2021/10/01 12:24:01;;;;;;;18.52;15.98;;;19.70;60.00;;;;;;4980751;29;20536;-72
2021/10/01 12:26:35;;;;;;;17.25;15.75;;;19.80;59.30;;;;;;4979512;29;20076;-71
2021/10/01 12:29:23;;;;;;;16.75;15.45;;;19.70;57.30;;;;;;4979950;29;20081;-72
2021/10/01 12:32:03;;;;;;;17.10;15.77;;;19.70;59.20;;;;;;4979932;29;20054;-71
2021/10/01 12:34:42;;;;;;;17.25;15.95;;;19.70;58.20;;;;;;4980704;29;20077;-72
2021/10/01 12:37:18;;;;;;;17.77;15.93;;;19.80;58.80;;;;;;4982103;29;20062;-71
2021/10/01 12:39:57;;;;;;;17.88;16.35;;;19.80;58.50;;;;;;4978808;29;20106;-70
2021/10/01 12:42:37;;;;;;;17.67;16.38;;;19.90;58.80;;;;;;4979853;29;20923;-72
2021/10/01 12:45:20;;;;;;;17.65;16.27;;;19.90;59.20;;;;;;4951250;29;20165;-71
2021/10/01 12:47:52;;;;;;;18.45;16.80;;;20.00;60.00;;;;;;4966772;29;20142;-72
2021/10/01 12:50:32;;;;;;;18.40;16.80;;;20.00;59.30;;;;;;4978964;29;20070;-71
2021/10/01 12:53:06;;;;;;;17.52;16.02;;;20.00;58.10;;;;;;4977773;29;20157;-71
2021/10/01 12:55:38;;;;;;;18.38;16.90;;;20.00;55.80;;;;;;4966517;29;20083;-71
2021/10/01 12:58:17;;;;;;;18.52;16.83;;;20.00;55.60;;;;;;4979236;29;20057;-70
2021/10/01 13:00:51;;;;;;;18.97;16.83;;;20.00;58.10;;;;;;4964033;29;20157;-70
2021/10/01 13:03:23;;;;;;;18.83;17.23;;;20.00;58.60;;;;;;4980229;29;20054;-72
2021/10/01 13:05:55;;;;;;;18.38;16.58;;;20.10;58.90;;;;;;4979228;29;20074;-70
2021/10/01 13:08:33;;;;;;;18.65;17.25;;;20.10;58.50;;;;;;4979247;29;20596;-71
2021/10/01 13:11:04;;;;;;;18.27;16.88;;;20.10;56.60;;;;;;4977947;29;20989;-71
2021/10/01 13:13:37;;;;;;;18.58;17.00;;;20.10;58.50;;;;;;4966556;29;20190;-69
2021/10/01 13:16:13;;;;;;;18.65;17.10;;;20.10;58.40;;;;;;4979643;29;20060;-70
2021/10/01 13:18:45;;;;;;;18.40;17.10;;;20.10;59.30;;;;;;4979378;29;20046;-72
2021/10/01 13:21:21;;;;;;;18.27;16.98;;;20.10;60.30;;;;;;4979192;29;20534;-70
2021/10/01 13:24:00;;;;;;;18.42;17.02;;;20.20;59.10;;;;;;4978077;29;20114;-70
2021/10/01 13:26:39;;;;;;;17.88;16.58;;;20.10;59.70;;;;;;4978931;29;20114;-71
2021/10/01 13:29:12;;;;;;;18.65;17.25;;;20.10;59.40;;;;;;4979727;29;20103;-71
2021/10/01 13:31:46;;;;;;;18.17;16.67;;;20.20;60.00;;;;;;4976652;29;20047;-71
2021/10/01 13:34:19;;;;;;;18.42;17.10;;;20.10;58.60;;;;;;4965296;29;20095;-69
2021/10/01 13:36:51;;;;;;;17.88;16.48;;;20.10;59.00;;;;;;4966025;29;20056;-70
2021/10/01 13:39:23;;;;;;;18.30;16.90;;;20.10;60.20;;;;;;4964727;29;20057;-69
2021/10/01 13:41:55;;;;;;;18.33;16.92;;;20.20;59.20;;;;;;4978201;29;20529;-68
2021/10/01 13:44:26;;;;;;;18.10;16.80;;;20.10;58.60;;;;;;4980132;29;20042;-69
2021/10/01 13:46:58;;;;;;;18.33;16.95;;;20.10;59.10;;;;;;4977940;29;20066;-69
2021/10/01 13:49:30;;;;;;;17.67;16.27;;;20.10;59.90;;;;;;4967693;29;20058;-71
2021/10/01 13:52:02;;;;;;;17.15;15.90;;;20.10;58.10;;;;;;4980744;29;20119;-68
2021/10/01 13:54:34;;;;;;;17.90;16.40;;;20.10;58.20;;;;;;4967883;29;20470;-68
2021/10/01 13:57:06;;;;;;;17.67;16.38;;;20.10;58.50;;;;;;4976452;29;20125;-68
2021/10/01 13:59:38;;;;;;;17.60;16.30;;;20.20;60.60;;;;;;4979833;29;20077;-67
2021/10/01 14:02:10;;;;;;;18.15;16.85;;;20.20;59.70;;;;;;4967741;29;20049;-70
2021/10/01 14:04:45;;;;;;;17.67;16.27;;;20.20;58.10;;;;;;4953734;29;20081;-69
2021/10/01 14:07:17;;;;;;;17.63;16.33;;;20.30;59.60;;;;;;4977946;29;20054;-70
2021/10/01 14:09:50;;;;;;;17.80;16.50;;;20.40;58.40;;;;;;4976844;29;20913;-70
2021/10/01 14:12:30;;;;;;;;;;;20.40;59.00;;;;;;4979163;29;20111;-69
2021/10/01 14:15:03;;;;;;;17.75;16.45;;;20.50;58.20;;;;;;4979622;29;20558;-69
2021/10/01 14:17:35;;;;;;;17.52;16.27;;;20.50;59.60;;;;;;4978467;29;20077;-69
2021/10/01 14:20:09;;;;;;;18.10;16.75;;;20.70;59.50;;;;;;4980481;29;20478;-68
2021/10/01 14:22:42;;;;;;;17.60;16.20;;;20.80;59.60;;;;;;4981754;29;20413;-69
2021/10/01 14:25:16;;;;;;;17.90;16.50;;;20.80;59.20;;;;;;4979993;29;20046;-69
2021/10/01 14:27:49;;;;;;;17.77;16.38;;;20.90;58.80;;;;;;4982589;29;20106;-68
2021/10/01 14:30:21;;;;;;;17.98;16.48;;;21.00;58.40;;;;;;4984068;29;20059;-68
2021/10/01 14:32:54;;;;;;;18.25;16.95;;;21.10;56.70;;;;;;4983855;29;20149;-69
2021/10/01 14:35:39;;;;;;;18.00;16.70;;;21.20;58.30;;;;;;4983609;29;20235;-70
2021/10/01 14:38:11;;;;;;;17.98;16.58;;;21.30;59.50;;;;;;4969809;29;20147;-70
2021/10/01 14:40:45;;;;;;;17.92;16.63;;;21.40;56.30;;;;;;4983327;29;20467;-69
2021/10/01 14:43:36;;;;;;;19.15;17.75;;;21.50;58.30;;;;;;4982049;29;20147;-70
2021/10/01 14:46:09;;;;;;;17.90;16.63;;;21.70;59.10;;;;;;4983895;29;21053;-70
2021/10/01 14:48:42;;;;;;;18.10;16.83;;;21.80;57.90;;;;;;4983141;29;20061;-68
2021/10/01 14:51:15;;;;;;;19.02;17.60;;;22.00;57.20;;;;;;4953706;29;20579;-70
2021/10/01 14:53:47;;;;;;;19.25;17.77;;;22.10;56.60;;;;;;4982479;29;20046;-71
2021/10/01 14:56:21;;;;;;;19.30;17.70;;;22.20;56.40;;;;;;4966437;29;20173;-69